Time;durP1;ratioP1;P1;durP2;ratioP2;P2;SDS_P1;SDS_P2;PMS_P1;PMS_P2;Temp;Humidity;BMP_temperature;BMP_pressure;BME280_temperature;BME280_humidity;BME280_pressure;Samples;Min_cycle;Max_cycle;Signal;HPM_P1;HPM_P2
2022/02/23 00:01:40;;;;;;;11.18;6.13;;;;;;;8.66;88.37;99472.22;2622633;54;20037;-65
2022/02/23 00:04:13;;;;;;;8.38;5.47;;;;;;;8.64;88.21;99482.09;2622739;54;20553;-65
2022/02/23 00:06:43;;;;;;;7.82;3.50;;;;;;;8.53;86.54;99497.41;2623945;54;20631;-65
2022/02/23 00:09:13;;;;;;;4.43;2.13;;;;;;;8.41;85.51;99520.63;2625910;39;20425;-65
2022/02/23 00:11:43;;;;;;;3.10;1.23;;;;;;;8.27;83.12;99498.31;2623978;47;20037;-65
2022/02/23 00:14:13;;;;;;;2.75;1.30;;;;;;;8.18;81.82;99496.66;2624077;47;20039;-64
2022/02/23 00:16:43;;;;;;;2.25;1.20;;;;;;;8.13;81.32;99494.50;2623265;54;20026;-64
2022/02/23 00:19:16;;;;;;;5.03;1.70;;;;;;;8.17;81.48;99495.00;2623519;54;20022;-64
2022/02/23 00:21:51;;;;;;;7.07;1.55;;;;;;;8.19;81.28;99498.28;2623816;47;20049;-65
2022/02/23 00:24:21;;;;;;;3.88;1.50;;;;;;;8.15;80.40;99510.13;2623676;54;20561;-65
2022/02/23 00:26:50;;;;;;;2.65;1.35;;;;;;;8.10;79.33;99512.41;2624731;54;20031;-65
2022/02/23 00:29:20;;;;;;;5.55;1.30;;;;;;;8.06;78.49;99511.91;2625271;47;20042;-65
2022/02/23 00:31:53;;;;;;;3.55;1.10;;;;;;;7.99;77.66;99523.22;2625106;54;20042;-64
2022/02/23 00:34:25;;;;;;;2.45;1.20;;;;;;;7.97;77.97;99520.78;2624536;54;20027;-65
2022/02/23 00:36:56;;;;;;;2.75;1.10;;;;;;;7.98;78.18;99525.03;2625634;54;20030;-65
2022/02/23 00:39:26;;;;;;;5.32;1.80;;;;;;;7.96;78.50;99527.03;2625986;54;20022;-65
2022/02/23 00:41:56;;;;;;;4.80;1.42;;;;;;;8.00;78.35;99527.50;2624977;54;20023;-65
2022/02/23 00:44:26;;;;;;;4.47;1.00;;;;;;;7.98;78.37;99524.22;2625172;54;20038;-65
2022/02/23 00:46:55;;;;;;;4.85;1.10;;;;;;;7.95;78.43;99522.72;2625704;54;20042;-66
2022/02/23 00:49:28;;;;;;;4.35;1.35;;;;;;;7.99;77.92;99528.50;2624801;54;20119;-66
2022/02/23 00:51:58;;;;;;;2.78;1.35;;;;;;;8.02;78.42;99533.47;2624995;54;20035;-66
2022/02/23 00:54:27;;;;;;;3.92;1.30;;;;;;;8.04;77.92;99540.22;2625486;54;20050;-65
2022/02/23 00:56:57;;;;;;;3.90;1.30;;;;;;;8.01;78.17;99534.44;2625063;54;20038;-63
2022/02/23 00:59:27;;;;;;;4.10;1.40;;;;;;;8.04;78.17;99534.09;2628853;31;20530;-65
2022/02/23 01:01:57;;;;;;;5.80;1.75;;;;;;;8.09;78.42;99542.38;2623110;47;20034;-64
2022/02/23 01:04:29;;;;;;;2.67;1.70;;;;;;;8.09;78.40;99545.84;2624748;54;20038;-65
2022/02/23 01:06:59;;;;;;;6.93;1.63;;;;;;;8.04;78.39;99552.53;2624148;54;20031;-65
2022/02/23 01:09:28;;;;;;;5.55;1.60;;;;;;;7.94;78.68;99555.31;2624937;54;20033;-65
2022/02/23 01:11:58;;;;;;;3.75;1.50;;;;;;;7.91;79.29;99551.16;2622760;54;20042;-65
2022/02/23 01:14:28;;;;;;;2.85;1.27;;;;;;;7.98;79.74;99561.09;2621146;54;20034;-65
2022/02/23 01:16:59;;;;;;;3.40;1.45;;;;;;;8.02;79.45;99560.59;2621290;54;20022;-65
2022/02/23 01:19:32;;;;;;;3.90;1.30;;;;;;;8.05;79.72;99564.75;2624270;54;20037;-66
2022/02/23 01:22:02;;;;;;;5.75;1.55;;;;;;;8.08;79.09;99575.78;2624918;54;20049;-65
2022/02/23 01:24:32;;;;;;;5.40;1.23;;;;;;;8.11;79.50;99585.16;2625065;54;20041;-65
2022/02/23 01:27:03;;;;;;;3.58;1.42;;;;;;;8.12;79.03;99592.94;2625390;54;20549;-65
2022/02/23 01:29:32;;;;;;;4.18;1.40;;;;;;;8.06;78.78;99585.63;2623321;54;20538;-63
2022/02/23 01:32:05;;;;;;;5.30;1.77;;;;;;;7.97;79.11;99591.84;2623701;54;20090;-65
2022/02/23 01:34:37;;;;;;;2.17;1.40;;;;;;;7.90;79.21;99602.16;2624635;54;20027;-65
2022/02/23 01:37:07;;;;;;;2.15;1.40;;;;;;;7.82;79.41;99603.94;2624673;54;20041;-65
2022/02/23 01:39:36;;;;;;;14.52;2.17;;;;;;;7.78;79.84;99598.16;2624567;54;20034;-66
2022/02/23 01:42:11;;;;;;;2.90;1.50;;;;;;;7.81;80.29;99605.75;2625299;54;20045;-66
2022/02/23 01:44:40;;;;;;;8.85;1.80;;;;;;;7.82;80.01;99615.28;2624549;54;20022;-65
2022/02/23 01:47:10;;;;;;;4.82;1.60;;;;;;;7.73;79.29;99613.59;2624335;54;20042;-65
2022/02/23 01:49:43;;;;;;;3.08;1.17;;;;;;;7.76;79.75;99623.00;2623716;54;20568;-65
2022/02/23 01:52:12;;;;;;;6.03;1.92;;;;;;;7.79;79.49;99617.41;2623999;54;20042;-64
2022/02/23 01:54:42;;;;;;;2.70;1.45;;;;;;;7.77;79.18;99617.56;2623062;54;20069;-65
2022/02/23 01:57:12;;;;;;;4.15;1.38;;;;;;;7.75;78.84;99623.94;2624760;54;20039;-65
2022/02/23 01:59:42;;;;;;;3.03;1.30;;;;;;;7.70;78.43;99617.34;2624893;54;20031;-65
2022/02/23 02:02:12;;;;;;;2.40;1.13;;;;;;;7.69;77.96;99622.78;2624108;47;20041;-64
2022/02/23 02:04:44;;;;;;;6.18;1.73;;;;;;;7.66;77.95;99629.16;2624606;54;20558;-65
2022/02/23 02:07:14;;;;;;;3.85;1.40;;;;;;;7.62;77.74;99627.81;2624752;47;20037;-65
2022/02/23 02:09:43;;;;;;;5.55;1.23;;;;;;;7.64;77.34;99625.88;2625335;54;20039;-64
2022/02/23 02:12:14;;;;;;;3.38;1.10;;;;;;;7.66;77.21;99629.16;2623083;54;20070;-65
2022/02/23 02:14:44;;;;;;;4.70;1.40;;;;;;;7.65;76.89;99637.22;2621647;54;20046;-65
2022/02/23 02:17:15;;;;;;;3.45;1.30;;;;;;;7.61;76.82;99641.13;2621540;54;20081;-64
2022/02/23 02:19:47;;;;;;;6.88;1.70;;;;;;;7.64;76.65;99640.84;2623644;54;20549;-64
2022/02/23 02:22:20;;;;;;;7.43;1.40;;;;;;;7.68;76.46;99647.44;2624667;54;20050;-64
2022/02/23 02:24:50;;;;;;;4.30;1.17;;;;;;;7.64;76.03;99646.09;2622908;54;20031;-64
2022/02/23 02:27:20;;;;;;;3.90;1.25;;;;;;;7.62;75.98;99645.41;2622801;54;20562;-63
2022/02/23 02:29:49;;;;;;;4.75;1.65;;;;;;;7.55;75.30;99637.31;2621780;54;20027;-64
2022/02/23 02:32:19;;;;;;;5.97;1.60;;;;;;;7.39;76.18;99645.09;2622225;54;20231;-64
2022/02/23 02:34:50;;;;;;;5.22;1.50;;;;;;;7.28;76.34;99646.13;2621853;54;20026;-65
2022/02/23 02:37:22;;;;;;;6.32;1.45;;;;;;;7.16;77.17;99647.31;2622866;54;20025;-64
2022/02/23 02:39:52;;;;;;;4.15;1.20;;;;;;;7.16;77.67;99642.88;2622701;54;20062;-64
2022/02/23 02:42:25;;;;;;;5.82;1.60;;;;;;;7.16;78.04;99656.03;2623745;54;20553;-64
2022/02/23 02:44:55;;;;;;;5.78;1.73;;;;;;;7.14;77.44;99652.75;2622845;47;20041;-66
2022/02/23 02:47:24;;;;;;;4.13;1.50;;;;;;;7.08;78.14;99657.78;2623719;54;20027;-64
2022/02/23 02:49:54;;;;;;;4.60;1.60;;;;;;;7.07;78.10;99666.63;2624044;47;20046;-64
2022/02/23 02:52:27;;;;;;;5.75;1.55;;;;;;;7.05;78.19;99655.44;2623984;54;20050;-64
2022/02/23 02:54:57;;;;;;;5.68;1.25;;;;;;;7.08;78.22;99665.66;2624294;54;20035;-64
2022/02/23 02:57:27;;;;;;;5.97;1.98;;;;;;;7.09;78.05;99667.31;2624632;47;20604;-65
2022/02/23 02:59:57;;;;;;;3.95;1.50;;;;;;;7.08;78.16;99669.09;2623248;51;20045;-64
2022/02/23 03:02:27;;;;;;;5.45;2.15;;;;;;;7.05;78.65;99676.47;2623336;47;20034;-64
2022/02/23 03:04:57;;;;;;;5.85;1.80;;;;;;;6.99;78.51;99675.25;2623920;54;20094;-64
2022/02/23 03:07:31;;;;;;;4.40;1.52;;;;;;;6.99;78.77;99677.91;2623624;54;20026;-63
2022/02/23 03:10:01;;;;;;;4.35;1.80;;;;;;;6.99;78.64;99688.41;2625179;39;20713;-64
2022/02/23 03:12:31;;;;;;;6.43;2.15;;;;;;;6.97;79.09;99687.72;2623039;47;20531;-64
2022/02/23 03:15:00;;;;;;;5.32;1.90;;;;;;;7.00;79.12;99697.94;2624129;54;20034;-64
2022/02/23 03:17:32;;;;;;;5.13;2.00;;;;;;;7.01;79.30;99710.09;2624225;39;20407;-68
2022/02/23 03:20:01;;;;;;;6.95;1.95;;;;;;;6.95;78.77;99708.91;2623444;54;20031;-64
2022/02/23 03:22:36;;;;;;;3.88;1.85;;;;;;;6.90;79.07;99710.31;2622392;54;20022;-63
2022/02/23 03:25:07;;;;;;;6.30;2.38;;;;;;;6.90;78.78;99718.22;2623240;47;20034;-64
2022/02/23 03:27:36;;;;;;;6.72;2.28;;;;;;;6.82;78.77;99724.19;2625341;54;20105;-64
2022/02/23 03:30:08;;;;;;;6.65;2.00;;;;;;;6.65;78.51;99727.56;2623844;47;20042;-64
2022/02/23 03:32:37;;;;;;;4.57;1.77;;;;;;;6.51;78.53;99733.31;2623325;54;20030;-64
2022/02/23 03:35:10;;;;;;;8.75;1.90;;;;;;;6.33;79.04;99741.13;2622552;54;20565;-64
2022/02/23 03:37:42;;;;;;;7.97;2.10;;;;;;;6.23;79.79;99737.69;2621865;47;20038;-64
2022/02/23 03:40:13;;;;;;;7.63;1.73;;;;;;;6.19;79.75;99742.38;2623081;54;20030;-64
2022/02/23 03:42:43;;;;;;;4.75;1.90;;;;;;;6.14;80.17;99748.06;2621946;54;20030;-64
2022/02/23 03:45:12;;;;;;;5.35;2.00;;;;;;;6.17;80.47;99753.03;2623035;54;20030;-66
2022/02/23 03:47:42;;;;;;;5.05;1.58;;;;;;;6.31;80.53;99756.19;2623816;54;20025;-64
2022/02/23 03:50:12;;;;;;;12.63;2.50;;;;;;;6.39;80.02;99756.28;2622673;54;20053;-63
2022/02/23 03:52:45;;;;;;;10.98;3.05;;;;;;;6.40;80.19;99761.38;2621946;47;20026;-63
2022/02/23 03:55:15;;;;;;;6.72;2.00;;;;;;;6.32;80.06;99769.16;2622554;54;20037;-64
2022/02/23 03:57:45;;;;;;;8.38;2.47;;;;;;;6.27;79.96;99773.19;2622671;54;20037;-63
2022/02/23 04:00:17;;;;;;;5.75;2.05;;;;;;;6.22;79.92;99778.84;2622502;54;20050;-66
2022/02/23 04:02:47;;;;;;;8.77;2.00;;;;;;;6.12;80.30;99789.38;2622221;54;20573;-68
2022/02/23 04:05:17;;;;;;;8.85;2.25;;;;;;;6.09;80.36;99791.47;2622737;54;20031;-64
2022/02/23 04:07:49;;;;;;;17.67;10.02;;;;;;;6.10;80.82;99795.72;2624336;54;20622;-63
2022/02/23 04:10:20;;;;;;;7.47;2.95;;;;;;;6.07;80.53;99793.38;2625274;54;20048;-64
2022/02/23 04:12:50;;;;;;;5.57;2.28;;;;;;;6.09;80.88;99794.09;2625620;39;20483;-64
2022/02/23 04:15:20;;;;;;;5.28;2.35;;;;;;;6.17;81.70;99789.78;2624873;54;20041;-65
2022/02/23 04:17:49;;;;;;;6.80;2.38;;;;;;;6.30;81.06;99793.91;2625883;54;20062;-65
2022/02/23 04:20:19;;;;;;;5.38;2.05;;;;;;;6.41;81.42;99796.38;2626349;54;20093;-65
2022/02/23 04:22:51;;;;;;;8.98;3.50;;;;;;;6.50;81.04;99797.34;2625754;54;20054;-65
2022/02/23 04:25:21;;;;;;;30.88;16.48;;;;;;;6.48;79.98;99796.63;2625569;54;20031;-65
2022/02/23 04:27:51;;;;;;;10.35;4.72;;;;;;;6.41;80.18;99799.84;2625226;47;20027;-66
2022/02/23 04:30:20;;;;;;;3.95;2.65;;;;;;;6.28;80.11;99806.34;2623036;54;20546;-68
2022/02/23 04:32:51;;;;;;;6.47;3.10;;;;;;;6.29;80.78;99808.84;2623659;54;20114;-64
2022/02/23 04:35:21;;;;;;;5.32;3.20;;;;;;;6.32;80.92;99808.53;2623290;54;20030;-64
2022/02/23 04:37:56;;;;;;;5.68;3.10;;;;;;;6.39;80.51;99814.06;2623185;54;20549;-67
2022/02/23 04:40:26;;;;;;;7.30;3.57;;;;;;;6.42;81.13;99816.44;2623373;54;20030;-64
2022/02/23 04:42:55;;;;;;;9.43;3.60;;;;;;;6.49;80.77;99817.53;2623039;47;20033;-64
2022/02/23 04:45:25;;;;;;;10.23;3.70;;;;;;;6.44;80.56;99817.91;2623178;54;20038;-64
2022/02/23 04:47:55;;;;;;;9.43;3.58;;;;;;;6.37;80.22;99829.97;2622550;54;20113;-64
2022/02/23 04:50:25;;;;;;;6.80;3.50;;;;;;;6.33;80.56;99835.66;2623426;54;20038;-66
2022/02/23 04:52:59;;;;;;;6.75;2.65;;;;;;;6.30;80.50;99835.94;2623856;39;20469;-65
2022/02/23 04:55:29;;;;;;;8.77;3.47;;;;;;;6.29;80.37;99839.53;2623549;54;20057;-67
2022/02/23 04:57:59;;;;;;;7.82;4.10;;;;;;;6.22;80.01;99844.50;2623599;54;20045;-64
2022/02/23 05:00:28;;;;;;;10.98;3.38;;;;;;;6.19;80.33;99842.16;2625097;54;20033;-65
2022/02/23 05:03:00;;;;;;;8.88;3.13;;;;;;;6.26;80.92;99855.56;2625244;54;20032;-65
2022/02/23 05:05:29;;;;;;;7.03;3.17;;;;;;;6.27;80.33;99851.97;2625274;54;20041;-64
2022/02/23 05:08:03;;;;;;;9.15;3.35;;;;;;;6.18;80.18;99851.81;2625379;54;20034;-66
2022/02/23 05:10:32;;;;;;;7.00;3.55;;;;;;;5.99;79.30;99866.75;2625594;54;20026;-64
2022/02/23 05:13:03;;;;;;;9.25;3.53;;;;;;;5.88;80.24;99862.44;2624501;54;20045;-64
2022/02/23 05:15:33;;;;;;;6.22;3.47;;;;;;;5.90;80.80;99868.34;2622668;47;20042;-62
2022/02/23 05:18:03;;;;;;;10.68;4.53;;;;;;;5.92;81.10;99871.72;2623888;46;20038;-63
2022/02/23 05:20:33;;;;;;;4.90;3.45;;;;;;;5.95;80.79;99874.88;2623345;54;20027;-64
2022/02/23 05:23:08;;;;;;;8.15;3.35;;;;;;;5.95;80.20;99885.38;2623322;54;20090;-65
2022/02/23 05:25:38;;;;;;;6.10;3.50;;;;;;;5.90;80.14;99889.34;2623726;54;20039;-67
2022/02/23 05:28:08;;;;;;;9.57;3.85;;;;;;;5.86;80.33;99894.03;2623301;54;20286;-62
2022/02/23 05:30:41;;;;;;;7.53;3.67;;;;;;;5.84;80.02;99901.25;2623485;54;20134;-63
2022/02/23 05:33:10;;;;;;;7.53;3.60;;;;;;;5.84;80.40;99905.66;2623787;47;20557;-63
2022/02/23 05:35:40;;;;;;;8.70;3.90;;;;;;;5.85;80.31;99907.31;2624752;51;20027;-64
2022/02/23 05:38:12;;;;;;;9.07;3.70;;;;;;;5.84;80.21;99909.09;2625593;54;20022;-64
2022/02/23 05:40:42;;;;;;;8.20;3.20;;;;;;;5.81;80.44;99906.75;2623416;54;20038;-63
2022/02/23 05:43:11;;;;;;;7.65;3.30;;;;;;;5.75;80.10;99916.94;2625048;54;20034;-63
2022/02/23 05:45:41;;;;;;;5.00;3.15;;;;;;;5.68;80.26;99919.28;2624427;54;20034;-64
2022/02/23 05:48:12;;;;;;;7.70;3.70;;;;;;;5.60;80.36;99922.56;2625108;54;20021;-64
2022/02/23 05:50:42;;;;;;;8.32;4.03;;;;;;;5.57;80.14;99919.38;2625136;54;20026;-64
2022/02/23 05:53:16;;;;;;;8.70;3.90;;;;;;;5.53;80.39;99931.09;2624403;47;20085;-64
2022/02/23 05:55:45;;;;;;;7.72;4.35;;;;;;;5.49;80.49;99934.94;2624725;54;20130;-63
2022/02/23 05:58:15;;;;;;;8.80;4.15;;;;;;;5.47;80.66;99935.94;2625704;46;20050;-64
2022/02/23 06:00:45;;;;;;;8.13;4.53;;;;;;;5.46;80.48;99942.09;2624781;54;20038;-64
2022/02/23 06:03:16;;;;;;;7.45;4.50;;;;;;;5.42;80.36;99940.72;2624262;47;20022;-64
2022/02/23 06:05:46;;;;;;;8.80;4.50;;;;;;;5.34;80.14;99940.53;2624392;54;20034;-64
2022/02/23 06:08:19;;;;;;;12.23;5.07;;;;;;;5.33;79.88;99944.13;2625011;46;20038;-64
2022/02/23 06:10:49;;;;;;;7.93;4.18;;;;;;;5.30;80.23;99939.13;2624917;54;20034;-64
2022/02/23 06:13:19;;;;;;;11.48;4.32;;;;;;;5.31;80.07;99950.50;2625199;54;20033;-64
2022/02/23 06:15:48;;;;;;;9.68;4.95;;;;;;;5.33;80.17;99943.31;2624509;54;20027;-64
2022/02/23 06:18:20;;;;;;;11.15;6.00;;;;;;;5.34;80.36;99958.91;2623957;54;20046;-64
2022/02/23 06:20:50;;;;;;;9.20;5.20;;;;;;;5.35;80.14;99957.97;2623920;47;20105;-64
2022/02/23 06:23:24;;;;;;;10.80;5.55;;;;;;;5.28;80.25;99964.69;2624569;54;20038;-63
2022/02/23 06:25:54;;;;;;;11.02;5.25;;;;;;;5.13;80.25;99961.53;2624342;54;20038;-63
2022/02/23 06:28:24;;;;;;;13.05;5.72;;;;;;;5.00;80.25;99967.97;2624178;54;20038;-63
2022/02/23 06:30:53;;;;;;;8.85;5.07;;;;;;;4.90;80.46;99973.97;2624150;47;20027;-64
2022/02/23 06:33:25;;;;;;;8.50;4.97;;;;;;;4.87;80.52;99981.25;2625601;54;20035;-64
2022/02/23 06:35:55;;;;;;;10.70;5.03;;;;;;;4.84;80.76;99981.50;2625318;54;20034;-63
2022/02/23 06:38:28;;;;;;;10.40;5.47;;;;;;;4.77;80.91;99981.16;2625801;54;20026;-63
2022/02/23 06:40:59;;;;;;;9.48;5.35;;;;;;;4.81;80.57;99985.19;2625402;39;20462;-63
2022/02/23 06:43:29;;;;;;;11.90;5.13;;;;;;;4.84;80.56;99994.59;2625643;54;20027;-64
2022/02/23 06:45:59;;;;;;;11.00;5.78;;;;;;;4.91;80.51;99998.38;2625450;54;20038;-64
2022/02/23 06:48:29;;;;;;;12.07;6.63;;;;;;;5.02;80.51;100002.72;2625501;54;20150;-63
2022/02/23 06:50:59;;;;;;;10.82;5.63;;;;;;;5.05;80.35;99999.84;2625543;54;20553;-64
2022/02/23 06:53:32;;;;;;;12.95;6.18;;;;;;;5.03;79.77;100000.00;2625818;54;20026;-63
2022/02/23 06:56:02;;;;;;;12.95;5.68;;;;;;;5.04;80.15;99999.03;2624933;54;20529;-64
2022/02/23 06:58:32;;;;;;;8.48;5.38;;;;;;;5.11;79.96;100007.22;2625552;54;20105;-63
2022/02/23 07:01:01;;;;;;;8.95;5.78;;;;;;;5.11;80.14;100004.59;2623101;54;20550;-63
2022/02/23 07:03:32;;;;;;;16.50;7.63;;;;;;;5.15;79.66;100008.63;2620992;47;20082;-63
2022/02/23 07:06:02;;;;;;;10.45;6.10;;;;;;;5.16;79.37;100005.88;2620977;54;20019;-64
2022/02/23 07:08:36;;;;;;;10.93;6.28;;;;;;;5.20;79.62;100009.88;2624210;39;20567;-66
2022/02/23 07:11:05;;;;;;;10.52;6.80;;;;;;;5.24;79.66;100018.34;2624495;54;20034;-65
2022/02/23 07:13:35;;;;;;;13.65;6.35;;;;;;;5.14;79.27;100015.66;2624322;54;20153;-64
2022/02/23 07:16:05;;;;;;;8.07;5.82;;;;;;;5.12;79.96;100006.25;2624586;54;20030;-64
2022/02/23 07:18:36;;;;;;;10.88;6.38;;;;;;;5.15;79.66;100016.50;2624092;54;20038;-64
2022/02/23 07:21:06;;;;;;;8.82;5.43;;;;;;;5.17;79.83;100009.31;2625107;39;20486;-64
2022/02/23 07:23:40;;;;;;;13.10;5.88;;;;;;;5.15;79.38;100016.50;2625817;54;20019;-64
2022/02/23 07:26:10;;;;;;;13.00;6.20;;;;;;;5.13;79.38;100015.75;2624665;54;20035;-66
2022/02/23 07:28:40;;;;;;;11.20;7.47;;;;;;;5.21;79.63;100016.78;2626210;54;20031;-65
2022/02/23 07:31:13;;;;;;;11.82;7.45;;;;;;;5.32;79.59;100021.13;2626352;54;20562;-66
2022/02/23 07:33:43;;;;;;;10.05;6.22;;;;;;;5.39;79.11;100022.28;2625666;54;20026;-65
2022/02/23 07:36:14;;;;;;;12.82;7.07;;;;;;;5.37;78.76;100026.00;2625932;54;20026;-64
2022/02/23 07:38:48;;;;;;;10.73;6.55;;;;;;;5.29;78.64;100026.63;2626035;54;20022;-65
2022/02/23 07:41:22;;;;;;;;;;;;;;;5.34;79.08;100031.47;2624578;54;20023;-67
2022/02/23 07:44:12;;;;;;;12.35;6.80;;;;;;;5.35;78.95;100039.25;2624032;39;20373;-65
2022/02/23 07:46:44;;;;;;;9.10;5.60;;;;;;;5.33;79.14;100037.69;2624693;54;20050;-65
2022/02/23 07:49:14;;;;;;;9.75;6.57;;;;;;;5.37;79.26;100037.31;2624511;54;20030;-65
2022/02/23 07:51:44;;;;;;;9.55;5.85;;;;;;;5.35;78.87;100041.88;2623112;54;20033;-65
2022/02/23 07:54:17;;;;;;;9.98;6.28;;;;;;;5.27;78.45;100041.69;2622474;54;20041;-65
2022/02/23 07:56:46;;;;;;;10.55;5.75;;;;;;;5.25;78.97;100042.75;2622614;47;20534;-66
2022/02/23 07:59:16;;;;;;;10.38;6.45;;;;;;;5.17;78.91;100043.38;2624522;54;20031;-66
2022/02/23 08:01:47;;;;;;;11.13;5.28;;;;;;;5.14;79.21;100039.25;2624510;54;20042;-65
2022/02/23 08:04:20;;;;;;;11.10;6.30;;;;;;;5.20;79.55;100037.91;2624959;46;20057;-65
2022/02/23 08:06:50;;;;;;;11.00;5.70;;;;;;;5.29;79.42;100031.88;2624620;54;20633;-65
2022/02/23 08:09:22;;;;;;;9.60;6.03;;;;;;;5.41;79.31;100040.50;2624562;54;20073;-65
2022/02/23 08:11:52;;;;;;;9.18;5.68;;;;;;;5.45;79.27;100036.66;2625011;39;20434;-64
2022/02/23 08:14:24;;;;;;;10.27;6.05;;;;;;;5.60;78.93;100039.78;2624016;54;20038;-64
2022/02/23 08:19:37;;;;;;;16.80;9.48;;;;;;;5.77;78.94;100043.59;2623148;39;20434;-64
2022/02/23 08:22:10;;;;;;;13.95;6.28;;;;;;;5.86;78.71;100043.63;2623248;54;20058;-64
2022/02/23 08:24:44;;;;;;;10.63;7.00;;;;;;;5.99;78.58;100045.22;2622821;54;20155;-64
2022/02/23 08:27:17;;;;;;;13.68;7.30;;;;;;;6.08;78.80;100045.28;2622390;54;20030;-64
2022/02/23 08:29:47;;;;;;;10.35;6.95;;;;;;;6.22;78.57;100049.31;2622982;54;20030;-65
2022/02/23 08:32:19;;;;;;;10.93;6.82;;;;;;;6.28;78.09;100043.50;2624397;54;20019;-65
2022/02/23 08:34:51;;;;;;;14.15;6.35;;;;;;;6.41;77.94;100040.66;2624007;54;20034;-64
2022/02/23 08:37:21;;;;;;;12.73;7.15;;;;;;;6.52;78.40;100043.16;2624152;54;20018;-63
2022/02/23 08:39:54;;;;;;;13.32;7.40;;;;;;;6.67;77.57;100044.41;2623796;54;20034;-65
2022/02/23 08:42:24;;;;;;;14.30;6.57;;;;;;;6.75;77.17;100051.63;2623782;54;20030;-63
2022/02/23 08:44:54;;;;;;;13.68;6.47;;;;;;;6.81;77.28;100051.06;2623393;54;20034;-64
2022/02/23 08:47:25;;;;;;;11.55;7.68;;;;;;;6.92;76.56;100048.28;2623710;54;20031;-65
2022/02/23 08:49:55;;;;;;;12.55;6.72;;;;;;;7.02;76.63;100048.31;2623401;54;20031;-64
2022/02/23 08:52:25;;;;;;;14.15;6.97;;;;;;;7.12;76.42;100051.75;2623827;54;20038;-64
2022/02/23 08:54:57;;;;;;;12.18;6.70;;;;;;;7.27;76.12;100041.63;2623623;54;20038;-64
2022/02/23 08:57:27;;;;;;;11.98;5.35;;;;;;;7.37;75.70;100041.59;2622757;47;20042;-63
2022/02/23 08:59:57;;;;;;;11.05;6.47;;;;;;;7.51;75.65;100042.94;2624527;54;20045;-64
2022/02/23 09:02:26;;;;;;;8.77;4.07;;;;;;;7.54;75.34;100050.56;2623470;54;20797;-64
2022/02/23 09:04:56;;;;;;;10.80;3.97;;;;;;;7.62;75.08;100050.69;2623526;54;20129;-64
2022/02/23 09:07:25;;;;;;;14.82;3.92;;;;;;;7.73;75.15;100047.06;2622997;54;20040;-65
2022/02/23 09:09:58;;;;;;;7.22;3.35;;;;;;;7.78;74.39;100045.63;2623491;54;20050;-64
2022/02/23 09:12:27;;;;;;;12.30;4.40;;;;;;;7.85;74.33;100045.91;2623649;54;20033;-64
2022/02/23 09:14:57;;;;;;;13.38;4.28;;;;;;;8.00;74.17;100051.50;2623002;54;20118;-64
2022/02/23 09:17:26;;;;;;;6.03;3.08;;;;;;;7.97;73.26;100051.81;2623119;54;20534;-66
2022/02/23 09:19:57;;;;;;;8.10;3.78;;;;;;;8.05;73.45;100049.28;2623016;54;20053;-66
2022/02/23 09:22:27;;;;;;;12.25;4.47;;;;;;;8.16;73.80;100049.94;2623673;54;20042;-66
2022/02/23 09:24:59;;;;;;;13.50;5.13;;;;;;;8.22;73.39;100050.31;2623241;54;20054;-66
2022/02/23 09:27:29;;;;;;;13.25;4.53;;;;;;;8.30;72.86;100050.41;2622897;54;20023;-66
2022/02/23 09:29:59;;;;;;;10.85;3.90;;;;;;;8.35;72.73;100038.44;2624031;46;20042;-64
2022/02/23 09:32:28;;;;;;;10.00;3.90;;;;;;;8.44;72.24;100034.94;2622495;54;20041;-65
2022/02/23 09:34:58;;;;;;;11.85;3.67;;;;;;;8.55;72.03;100038.34;2622700;54;20061;-64
2022/02/23 09:37:27;;;;;;;9.25;3.83;;;;;;;8.64;71.76;100037.44;2622761;54;20073;-64
2022/02/23 09:40:00;;;;;;;16.10;4.03;;;;;;;8.68;71.15;100028.25;2622774;54;20054;-65
2022/02/23 09:42:31;;;;;;;13.77;3.95;;;;;;;8.79;70.40;100035.13;2622769;54;20026;-64
2022/02/23 09:45:02;;;;;;;8.13;3.42;;;;;;;8.74;70.32;100038.22;2622800;39;20411;-64
2022/02/23 09:47:42;;;;;;;11.27;5.50;;;;;;;8.83;70.01;100039.94;2621099;47;20102;-64
2022/02/23 09:50:18;;;;;;;14.15;3.80;;;;;;;8.87;68.60;100033.38;2621237;39;20469;-62
2022/02/23 09:52:49;;;;;;;9.45;3.38;;;;;;;8.87;68.21;100033.38;2621287;39;20459;-64
2022/02/23 09:55:24;;;;;;;9.00;3.67;;;;;;;8.95;67.58;100034.44;2621351;54;20045;-64
2022/02/23 09:57:53;;;;;;;8.90;3.25;;;;;;;9.11;66.56;100035.41;2621563;54;20026;-64
2022/02/23 10:00:23;;;;;;;6.72;3.50;;;;;;;9.22;66.53;100033.47;2621895;54;20165;-63
2022/02/23 10:02:54;;;;;;;11.23;3.08;;;;;;;9.25;65.97;100027.91;2622026;54;20038;-64
2022/02/23 10:05:24;;;;;;;8.50;3.20;;;;;;;9.22;65.32;100033.47;2621304;54;20034;-64
2022/02/23 10:08:05;;;;;;;8.93;3.45;;;;;;;9.16;63.98;100030.47;2621656;54;20035;-63
2022/02/23 10:10:57;;;;;;;8.07;2.92;;;;;;;9.16;64.65;100033.13;2621472;54;20046;-61
2022/02/23 10:13:27;;;;;;;7.45;2.78;;;;;;;9.31;64.35;100037.84;2622156;47;20042;-62
2022/02/23 10:15:58;;;;;;;10.25;3.22;;;;;;;9.32;64.68;100036.88;2621481;54;20026;-62
2022/02/23 10:18:48;;;;;;;8.82;2.67;;;;;;;9.40;64.41;100039.56;2622179;54;20057;-63
2022/02/23 10:21:19;;;;;;;14.73;3.42;;;;;;;9.34;64.07;100034.88;2622389;54;20114;-63
2022/02/23 10:23:49;;;;;;;13.07;4.00;;;;;;;9.34;63.07;100035.72;2623185;54;20562;-65
2022/02/23 10:26:32;;;;;;;9.82;2.60;;;;;;;9.45;62.81;100029.34;2624158;54;20053;-63
2022/02/23 10:29:03;;;;;;;7.55;3.00;;;;;;;9.52;63.15;100024.31;2624173;39;20427;-64
2022/02/23 10:31:33;;;;;;;11.48;4.35;;;;;;;9.61;63.02;100018.06;2624427;54;20070;-63
2022/02/23 10:34:21;;;;;;;9.07;2.90;;;;;;;9.67;62.01;100023.56;2623841;47;20031;-64
2022/02/23 10:37:00;;;;;;;11.35;3.67;;;;;;;9.73;62.08;100022.09;2624601;54;20034;-62
2022/02/23 10:39:38;;;;;;;6.40;2.42;;;;;;;9.77;61.28;100020.81;2625898;54;20563;-62
2022/02/23 10:42:12;;;;;;;7.43;2.38;;;;;;;9.80;60.22;100028.41;2624141;54;20066;-62
2022/02/23 10:44:42;;;;;;;;;;;;;;;9.81;58.65;100024.78;2624893;54;20039;-63
2022/02/23 10:47:23;;;;;;;7.55;2.20;;;;;;;9.79;58.78;100016.19;2624925;54;19950;-63
2022/02/23 10:50:04;;;;;;;8.32;2.72;;;;;;;9.89;58.55;100013.44;2625028;54;20045;-64
2022/02/23 10:52:36;;;;;;;7.95;2.22;;;;;;;9.90;58.54;100018.53;2625142;54;20026;-63
2022/02/23 10:55:16;;;;;;;9.45;2.92;;;;;;;9.96;58.98;100010.97;2624431;54;20031;-65
2022/02/23 10:57:52;;;;;;;11.45;2.72;;;;;;;10.02;58.36;100010.34;2622790;54;20018;-66
2022/02/23 11:00:26;;;;;;;14.23;7.22;;;;;;;10.14;58.45;100006.44;2625207;54;20026;-63
2022/02/23 11:02:56;;;;;;;11.07;3.92;;;;;;;10.26;58.05;100007.00;2625080;47;20018;-65
2022/02/23 11:05:27;;;;;;;6.95;2.45;;;;;;;10.32;57.90;100004.50;2626812;39;20393;-65
2022/02/23 11:07:59;;;;;;;9.82;2.50;;;;;;;10.41;58.25;100002.75;2625067;54;20035;-63
2022/02/23 11:10:28;;;;;;;8.73;2.33;;;;;;;10.46;57.66;99994.31;2626088;46;20046;-64
2022/02/23 11:13:02;;;;;;;8.73;2.17;;;;;;;10.49;56.98;99996.63;2625866;54;20087;-64
2022/02/23 11:15:32;;;;;;;8.00;2.35;;;;;;;10.56;57.88;99992.34;2625633;54;20042;-64
2022/02/23 11:18:04;;;;;;;12.77;2.63;;;;;;;10.59;56.61;99995.47;2625304;54;20031;-64
2022/02/23 11:20:34;;;;;;;5.88;2.25;;;;;;;10.52;55.38;99993.66;2624534;54;20038;-63
2022/02/23 11:23:06;;;;;;;8.57;2.42;;;;;;;10.50;56.16;99998.28;2625028;54;20027;-63
2022/02/23 11:25:39;;;;;;;5.43;2.20;;;;;;;10.57;56.04;99991.34;2624843;47;20043;-63
2022/02/23 11:28:19;;;;;;;8.48;2.17;;;;;;;10.57;55.40;99997.47;2625601;46;20586;-63
2022/02/23 11:30:49;;;;;;;9.93;2.70;;;;;;;10.59;55.10;99992.84;2624992;54;20030;-65
2022/02/23 11:33:24;;;;;;;7.07;2.20;;;;;;;10.58;55.08;99996.47;2624323;54;20534;-66
2022/02/23 11:35:57;;;;;;;6.15;1.73;;;;;;;10.61;55.48;99993.53;2622766;47;20031;-62
2022/02/23 11:38:31;;;;;;;4.65;2.03;;;;;;;10.66;55.23;99993.03;2622987;54;20035;-64
2022/02/23 11:41:01;;;;;;;6.97;2.97;;;;;;;10.71;55.30;99987.25;2623281;54;20026;-63
2022/02/23 11:43:42;;;;;;;7.07;2.33;;;;;;;10.84;54.93;99985.75;2623369;54;20070;-64
2022/02/23 11:46:12;;;;;;;7.07;2.15;;;;;;;10.87;53.84;99985.41;2622092;47;20568;-62
2022/02/23 11:48:50;;;;;;;9.30;2.22;;;;;;;10.94;54.14;99982.09;2622602;47;20050;-64
2022/02/23 11:51:29;;;;;;;7.18;2.67;;;;;;;10.99;53.24;99975.34;2623807;39;20426;-63
2022/02/23 11:54:00;;;;;;;7.18;2.00;;;;;;;10.89;53.78;99964.91;2622535;47;20049;-63
2022/02/23 11:56:41;;;;;;;5.72;1.85;;;;;;;10.93;53.95;99964.56;2622828;47;20026;-62
2022/02/23 11:59:49;;;;;;;8.15;2.58;;;;;;;11.01;53.69;99959.28;2623167;54;20061;-63